sensor_id;sensor_type;location;lat;lon;timestamp;temperature;humidity
57030;DHT22;42920;45.306;20.448;2022-09-09T00:00:41;614.60;2432.00
57030;DHT22;42920;45.306;20.448;2022-09-09T00:03:19;614.70;2432.00
57030;DHT22;42920;45.306;20.448;2022-09-09T00:09:08;614.80;2432.00
57030;DHT22;42920;45.306;20.448;2022-09-09T00:11:51;614.80;2432.00
57030;DHT22;42920;45.306;20.448;2022-09-09T00:15:04;614.80;2432.00
57030;DHT22;42920;45.306;20.448;2022-09-09T00:17:21;614.80;2432.00
57030;DHT22;42920;45.306;20.448;2022-09-09T00:20:12;614.90;2432.00
57030;DHT22;42920;45.306;20.448;2022-09-09T00:23:06;614.90;2432.00
57030;DHT22;42920;45.306;20.448;2022-09-09T00:25:42;614.90;2432.00
57030;DHT22;42920;45.306;20.448;2022-09-09T00:28:20;614.80;2432.00
57030;DHT22;42920;45.306;20.448;2022-09-09T00:30:47;614.80;2432.00
57030;DHT22;42920;45.306;20.448;2022-09-09T00:33:20;614.80;2432.00
57030;DHT22;42920;45.306;20.448;2022-09-09T00:35:53;614.80;2432.00
57030;DHT22;42920;45.306;20.448;2022-09-09T00:38:32;614.80;2432.00
57030;DHT22;42920;45.306;20.448;2022-09-09T00:44:43;614.90;2432.00
57030;DHT22;42920;45.306;20.448;2022-09-09T00:49:30;614.90;2432.00
57030;DHT22;42920;45.306;20.448;2022-09-09T00:52:17;614.90;2432.00
57030;DHT22;42920;45.306;20.448;2022-09-09T00:57:38;614.80;2432.00
57030;DHT22;42920;45.306;20.448;2022-09-09T01:06:16;614.80;2432.00
57030;DHT22;42920;45.306;20.448;2022-09-09T01:08:54;614.80;2432.00
57030;DHT22;42920;45.306;20.448;2022-09-09T01:11:40;614.80;2432.00
57030;DHT22;42920;45.306;20.448;2022-09-09T01:25:10;614.70;2432.00
57030;DHT22;42920;45.306;20.448;2022-09-09T01:27:40;614.70;2432.00
57030;DHT22;42920;45.306;20.448;2022-09-09T01:30:10;614.60;2432.00
57030;DHT22;42920;45.306;20.448;2022-09-09T01:32:43;614.60;2432.00
57030;DHT22;42920;45.306;20.448;2022-09-09T01:37:49;614.60;2432.00
57030;DHT22;42920;45.306;20.448;2022-09-09T01:40:15;614.60;2432.00
57030;DHT22;42920;45.306;20.448;2022-09-09T01:42:40;614.60;2432.00
57030;DHT22;42920;45.306;20.448;2022-09-09T01:45:07;614.60;2432.00
57030;DHT22;42920;45.306;20.448;2022-09-09T01:47:32;614.60;2432.00
57030;DHT22;42920;45.306;20.448;2022-09-09T01:49:59;614.60;2432.00
57030;DHT22;42920;45.306;20.448;2022-09-09T01:52:26;614.60;2432.00
57030;DHT22;42920;45.306;20.448;2022-09-09T01:54:52;614.70;2432.00
57030;DHT22;42920;45.306;20.448;2022-09-09T01:57:33;614.70;2432.00
57030;DHT22;42920;45.306;20.448;2022-09-09T02:00:13;614.70;2432.00
57030;DHT22;42920;45.306;20.448;2022-09-09T02:08:23;614.70;2432.00
57030;DHT22;42920;45.306;20.448;2022-09-09T02:11:11;614.70;2432.00
57030;DHT22;42920;45.306;20.448;2022-09-09T02:13:39;614.70;2432.00
57030;DHT22;42920;45.306;20.448;2022-09-09T02:16:08;614.60;2432.00
57030;DHT22;42920;45.306;20.448;2022-09-09T02:19:02;614.60;2432.00
57030;DHT22;42920;45.306;20.448;2022-09-09T02:21:32;614.60;2432.00
57030;DHT22;42920;45.306;20.448;2022-09-09T02:24:03;614.60;2432.00
57030;DHT22;42920;45.306;20.448;2022-09-09T02:26:31;614.60;2432.00
57030;DHT22;42920;45.306;20.448;2022-09-09T02:29:02;614.60;2432.00
57030;DHT22;42920;45.306;20.448;2022-09-09T02:31:29;614.50;2432.00
57030;DHT22;42920;45.306;20.448;2022-09-09T02:34:00;614.50;2432.00
57030;DHT22;42920;45.306;20.448;2022-09-09T02:36:30;614.50;2432.00
57030;DHT22;42920;45.306;20.448;2022-09-09T02:38:59;614.50;2432.00
57030;DHT22;42920;45.306;20.448;2022-09-09T02:41:34;614.40;2432.00
57030;DHT22;42920;45.306;20.448;2022-09-09T02:44:01;614.40;2432.00
57030;DHT22;42920;45.306;20.448;2022-09-09T02:52:13;589.70;2432.00
57030;DHT22;42920;45.306;20.448;2022-09-09T02:54:42;614.40;2432.00
57030;DHT22;42920;45.306;20.448;2022-09-09T02:57:19;589.70;2432.00
57030;DHT22;42920;45.306;20.448;2022-09-09T02:59:47;589.70;2432.00
57030;DHT22;42920;45.306;20.448;2022-09-09T03:02:13;589.70;2432.00
57030;DHT22;42920;45.306;20.448;2022-09-09T03:04:39;589.70;2432.00
57030;DHT22;42920;45.306;20.448;2022-09-09T03:07:05;589.70;2432.00
57030;DHT22;42920;45.306;20.448;2022-09-09T03:09:31;589.70;2432.00
57030;DHT22;42920;45.306;20.448;2022-09-09T03:11:58;589.70;2432.00
57030;DHT22;42920;45.306;20.448;2022-09-09T03:14:24;589.70;2432.00
57030;DHT22;42920;45.306;20.448;2022-09-09T03:16:53;589.70;2432.00
57030;DHT22;42920;45.306;20.448;2022-09-09T03:19:20;589.70;2432.00
57030;DHT22;42920;45.306;20.448;2022-09-09T03:21:47;589.50;2432.00
57030;DHT22;42920;45.306;20.448;2022-09-09T03:24:13;589.50;2432.00
57030;DHT22;42920;45.306;20.448;2022-09-09T03:26:40;589.60;2432.00
57030;DHT22;42920;45.306;20.448;2022-09-09T03:29:07;589.60;2432.00
57030;DHT22;42920;45.306;20.448;2022-09-09T03:31:33;589.40;2432.00
57030;DHT22;42920;45.306;20.448;2022-09-09T03:33:59;589.70;2432.00
57030;DHT22;42920;45.306;20.448;2022-09-09T03:36:26;589.60;2432.00
57030;DHT22;42920;45.306;20.448;2022-09-09T03:38:52;589.50;2432.00
57030;DHT22;42920;45.306;20.448;2022-09-09T03:41:20;589.60;2432.00
57030;DHT22;42920;45.306;20.448;2022-09-09T03:43:52;589.60;2432.00
57030;DHT22;42920;45.306;20.448;2022-09-09T03:46:20;589.50;2432.00
57030;DHT22;42920;45.306;20.448;2022-09-09T03:48:46;589.50;2432.00
57030;DHT22;42920;45.306;20.448;2022-09-09T03:51:12;589.40;2432.00
57030;DHT22;42920;45.306;20.448;2022-09-09T03:53:38;589.50;2432.00
57030;DHT22;42920;45.306;20.448;2022-09-09T03:56:05;589.50;2432.00
57030;DHT22;42920;45.306;20.448;2022-09-09T03:58:33;589.50;2432.00
57030;DHT22;42920;45.306;20.448;2022-09-09T04:03:29;589.50;2432.00
57030;DHT22;42920;45.306;20.448;2022-09-09T04:05:58;589.50;2432.00
57030;DHT22;42920;45.306;20.448;2022-09-09T04:08:24;589.40;2432.00
57030;DHT22;42920;45.306;20.448;2022-09-09T04:10:53;589.40;2432.00
57030;DHT22;42920;45.306;20.448;2022-09-09T04:13:24;589.40;2432.00
57030;DHT22;42920;45.306;20.448;2022-09-09T04:15:51;589.40;2432.00
57030;DHT22;42920;45.306;20.448;2022-09-09T04:18:18;589.40;2432.00
57030;DHT22;42920;45.306;20.448;2022-09-09T04:20:47;589.40;2432.00
57030;DHT22;42920;45.306;20.448;2022-09-09T04:23:13;589.40;2432.00
57030;DHT22;42920;45.306;20.448;2022-09-09T04:25:44;589.40;2432.00
57030;DHT22;42920;45.306;20.448;2022-09-09T04:28:10;589.40;2432.00
57030;DHT22;42920;45.306;20.448;2022-09-09T04:30:36;589.40;2432.00
57030;DHT22;42920;45.306;20.448;2022-09-09T04:33:01;589.20;2432.00
57030;DHT22;42920;45.306;20.448;2022-09-09T04:35:27;589.20;2432.00
57030;DHT22;42920;45.306;20.448;2022-09-09T04:37:53;589.20;2432.00
57030;DHT22;42920;45.306;20.448;2022-09-09T04:40:18;589.20;2432.00
57030;DHT22;42920;45.306;20.448;2022-09-09T04:42:44;589.20;2432.00
57030;DHT22;42920;45.306;20.448;2022-09-09T04:45:10;589.10;2432.00
57030;DHT22;42920;45.306;20.448;2022-09-09T04:47:36;589.10;2432.00
57030;DHT22;42920;45.306;20.448;2022-09-09T04:50:02;589.10;2432.00
57030;DHT22;42920;45.306;20.448;2022-09-09T04:52:28;589.10;2432.00
57030;DHT22;42920;45.306;20.448;2022-09-09T04:54:54;589.00;2432.00
57030;DHT22;42920;45.306;20.448;2022-09-09T04:57:20;589.10;2432.00
57030;DHT22;42920;45.306;20.448;2022-09-09T04:59:45;589.00;2432.00
57030;DHT22;42920;45.306;20.448;2022-09-09T05:02:11;589.00;2432.00
57030;DHT22;42920;45.306;20.448;2022-09-09T05:04:37;589.00;2432.00
57030;DHT22;42920;45.306;20.448;2022-09-09T05:07:03;589.00;2432.00
57030;DHT22;42920;45.306;20.448;2022-09-09T05:09:29;589.00;2432.00
57030;DHT22;42920;45.306;20.448;2022-09-09T05:11:55;589.00;2432.00
57030;DHT22;42920;45.306;20.448;2022-09-09T05:14:21;589.00;2432.00
57030;DHT22;42920;45.306;20.448;2022-09-09T05:16:48;589.00;2432.00
57030;DHT22;42920;45.306;20.448;2022-09-09T05:19:15;589.00;2432.00
57030;DHT22;42920;45.306;20.448;2022-09-09T05:21:41;589.00;2432.00
57030;DHT22;42920;45.306;20.448;2022-09-09T05:24:07;589.10;2432.00
57030;DHT22;42920;45.306;20.448;2022-09-09T05:26:32;589.00;2432.00
57030;DHT22;42920;45.306;20.448;2022-09-09T05:28:58;589.00;2432.00
57030;DHT22;42920;45.306;20.448;2022-09-09T05:31:26;589.00;2432.00
57030;DHT22;42920;45.306;20.448;2022-09-09T05:33:53;589.00;2432.00
57030;DHT22;42920;45.306;20.448;2022-09-09T05:36:20;589.10;2432.00
57030;DHT22;42920;45.306;20.448;2022-09-09T05:38:47;589.10;2432.00
57030;DHT22;42920;45.306;20.448;2022-09-09T05:41:13;589.10;2432.00
57030;DHT22;42920;45.306;20.448;2022-09-09T05:43:41;589.10;2432.00
57030;DHT22;42920;45.306;20.448;2022-09-09T05:46:17;589.10;2432.00
57030;DHT22;42920;45.306;20.448;2022-09-09T05:48:44;589.20;2432.00
57030;DHT22;42920;45.306;20.448;2022-09-09T05:51:21;589.20;2432.00
57030;DHT22;42920;45.306;20.448;2022-09-09T05:53:48;589.30;2432.00
57030;DHT22;42920;45.306;20.448;2022-09-09T05:56:19;589.30;2432.00
57030;DHT22;42920;45.306;20.448;2022-09-09T05:58:45;589.20;2432.00
57030;DHT22;42920;45.306;20.448;2022-09-09T06:01:23;589.20;2432.00
57030;DHT22;42920;45.306;20.448;2022-09-09T06:03:50;589.10;2432.00
57030;DHT22;42920;45.306;20.448;2022-09-09T06:06:19;589.20;2432.00
57030;DHT22;42920;45.306;20.448;2022-09-09T06:08:49;589.20;2432.00
57030;DHT22;42920;45.306;20.448;2022-09-09T06:11:22;589.20;2432.00
57030;DHT22;42920;45.306;20.448;2022-09-09T06:13:48;589.10;2432.00
57030;DHT22;42920;45.306;20.448;2022-09-09T06:16:18;589.20;2432.00
57030;DHT22;42920;45.306;20.448;2022-09-09T06:18:44;589.20;2432.00
57030;DHT22;42920;45.306;20.448;2022-09-09T06:21:17;589.20;2432.00
57030;DHT22;42920;45.306;20.448;2022-09-09T06:23:43;589.20;2432.00
57030;DHT22;42920;45.306;20.448;2022-09-09T06:26:21;589.30;2432.00
57030;DHT22;42920;45.306;20.448;2022-09-09T06:28:49;589.40;2432.00
57030;DHT22;42920;45.306;20.448;2022-09-09T06:31:17;589.40;2432.00
57030;DHT22;42920;45.306;20.448;2022-09-09T06:33:47;589.40;2432.00
57030;DHT22;42920;45.306;20.448;2022-09-09T06:36:17;589.50;2432.00
57030;DHT22;42920;45.306;20.448;2022-09-09T06:38:44;589.50;2432.00
57030;DHT22;42920;45.306;20.448;2022-09-09T06:41:11;589.50;2432.00
57030;DHT22;42920;45.306;20.448;2022-09-09T06:43:38;589.50;2432.00
57030;DHT22;42920;45.306;20.448;2022-09-09T06:46:12;589.50;2432.00
57030;DHT22;42920;45.306;20.448;2022-09-09T06:48:42;589.50;2432.00
57030;DHT22;42920;45.306;20.448;2022-09-09T06:51:12;589.60;2432.00
57030;DHT22;42920;45.306;20.448;2022-09-09T06:53:39;589.60;2432.00
57030;DHT22;42920;45.306;20.448;2022-09-09T06:58:38;589.70;2432.00
57030;DHT22;42920;45.306;20.448;2022-09-09T07:01:08;589.70;2432.00
57030;DHT22;42920;45.306;20.448;2022-09-09T07:03:35;614.40;2432.00
57030;DHT22;42920;45.306;20.448;2022-09-09T07:06:01;614.50;2432.00
57030;DHT22;42920;45.306;20.448;2022-09-09T07:08:28;614.80;2432.00
57030;DHT22;42920;45.306;20.448;2022-09-09T07:10:53;614.50;2432.00
57030;DHT22;42920;45.306;20.448;2022-09-09T07:13:28;614.50;2432.00
57030;DHT22;42920;45.306;20.448;2022-09-09T07:15:54;614.50;2432.00
57030;DHT22;42920;45.306;20.448;2022-09-09T07:18:20;614.50;2432.00
57030;DHT22;42920;45.306;20.448;2022-09-09T07:20:55;614.50;2432.00
57030;DHT22;42920;45.306;20.448;2022-09-09T07:23:23;614.50;2432.00
57030;DHT22;42920;45.306;20.448;2022-09-09T07:25:49;589.70;2432.00
57030;DHT22;42920;45.306;20.448;2022-09-09T07:28:16;614.60;2432.00
57030;DHT22;42920;45.306;20.448;2022-09-09T07:30:42;614.50;2432.00
57030;DHT22;42920;45.306;20.448;2022-09-09T07:33:08;614.40;2432.00
57030;DHT22;42920;45.306;20.448;2022-09-09T07:35:35;614.60;2432.00
57030;DHT22;42920;45.306;20.448;2022-09-09T07:38:02;614.60;2432.00
57030;DHT22;42920;45.306;20.448;2022-09-09T07:40:32;614.70;2432.00
57030;DHT22;42920;45.306;20.448;2022-09-09T07:42:59;614.70;2432.00
57030;DHT22;42920;45.306;20.448;2022-09-09T07:45:26;614.80;2432.00
57030;DHT22;42920;45.306;20.448;2022-09-09T07:47:53;614.50;2432.00
57030;DHT22;42920;45.306;20.448;2022-09-09T07:50:20;614.50;2432.00
57030;DHT22;42920;45.306;20.448;2022-09-09T07:52:46;614.50;2432.00
57030;DHT22;42920;45.306;20.448;2022-09-09T07:55:12;614.50;2432.00
57030;DHT22;42920;45.306;20.448;2022-09-09T07:57:37;614.50;2432.00
57030;DHT22;42920;45.306;20.448;2022-09-09T08:00:04;614.50;2432.00
57030;DHT22;42920;45.306;20.448;2022-09-09T08:02:30;614.50;2432.00
57030;DHT22;42920;45.306;20.448;2022-09-09T08:04:56;614.60;2432.00
57030;DHT22;42920;45.306;20.448;2022-09-09T08:07:22;614.80;2432.00
57030;DHT22;42920;45.306;20.448;2022-09-09T08:09:48;614.90;2432.00
57030;DHT22;42920;45.306;20.448;2022-09-09T08:12:15;615.00;2432.00
57030;DHT22;42920;45.306;20.448;2022-09-09T08:14:41;614.90;2432.00
57030;DHT22;42920;45.306;20.448;2022-09-09T08:17:07;615.20;2432.00
57030;DHT22;42920;45.306;20.448;2022-09-09T08:19:33;615.20;2432.00
57030;DHT22;42920;45.306;20.448;2022-09-09T08:22:02;615.20;2432.00
57030;DHT22;42920;45.306;20.448;2022-09-09T08:24:28;615.00;2432.00
57030;DHT22;42920;45.306;20.448;2022-09-09T08:26:54;615.30;2432.00
57030;DHT22;42920;45.306;20.448;2022-09-09T08:29:22;615.30;2432.00
57030;DHT22;42920;45.306;20.448;2022-09-09T08:34:20;640.00;2432.00
57030;DHT22;42920;45.306;20.448;2022-09-09T08:36:48;640.10;2432.00
57030;DHT22;42920;45.306;20.448;2022-09-09T08:39:15;640.10;2432.00
57030;DHT22;42920;45.306;20.448;2022-09-09T08:50:44;640.10;2432.00
57030;DHT22;42920;45.306;20.448;2022-09-09T08:53:22;640.20;2432.00
57030;DHT22;42920;45.306;20.448;2022-09-09T08:55:54;640.40;2432.00
57030;DHT22;42920;45.306;20.448;2022-09-09T08:58:32;640.50;2432.00
57030;DHT22;42920;45.306;20.448;2022-09-09T09:11:53;640.80;2432.00
57030;DHT22;42920;45.306;20.448;2022-09-09T09:14:24;640.70;2432.00
57030;DHT22;42920;45.306;20.448;2022-09-09T09:17:04;640.70;2432.00
57030;DHT22;42920;45.306;20.448;2022-09-09T09:19:33;640.70;2432.00
57030;DHT22;42920;45.306;20.448;2022-09-09T09:30:22;665.80;2432.00
57030;DHT22;42920;45.306;20.448;2022-09-09T09:32:55;666.10;2432.00
57030;DHT22;42920;45.306;20.448;2022-09-09T09:35:23;666.10;2432.00
57030;DHT22;42920;45.306;20.448;2022-09-09T09:37:49;665.90;2432.00
57030;DHT22;42920;45.306;20.448;2022-09-09T09:40:20;640.90;2432.00
57030;DHT22;42920;45.306;20.448;2022-09-09T09:42:59;665.70;2432.00
57030;DHT22;42920;45.306;20.448;2022-09-09T09:45:27;665.80;2432.00
57030;DHT22;42920;45.306;20.448;2022-09-09T09:48:03;665.70;2432.00
57030;DHT22;42920;45.306;20.448;2022-09-09T09:50:30;665.60;2432.00
57030;DHT22;42920;45.306;20.448;2022-09-09T09:53:04;665.60;2432.00
57030;DHT22;42920;45.306;20.448;2022-09-09T09:55:32;666.00;2432.00
57030;DHT22;42920;45.306;20.448;2022-09-09T09:58:06;666.20;2432.00
57030;DHT22;42920;45.306;20.448;2022-09-09T10:00:32;666.50;2432.00
57030;DHT22;42920;45.306;20.448;2022-09-09T10:03:00;691.20;2432.00
57030;DHT22;42920;45.306;20.448;2022-09-09T10:05:30;691.20;2432.00
57030;DHT22;42920;45.306;20.448;2022-09-09T10:08:16;666.50;2432.00
57030;DHT22;42920;45.306;20.448;2022-09-09T10:14:15;691.60;2432.00
57030;DHT22;42920;45.306;20.448;2022-09-09T10:27:42;717.30;2432.00
57030;DHT22;42920;45.306;20.448;2022-09-09T10:33:04;717.70;2432.00
57030;DHT22;42920;45.306;20.448;2022-09-09T10:38:27;717.70;2432.00
57030;DHT22;42920;45.306;20.448;2022-09-09T10:46:27;742.40;2432.00
57030;DHT22;42920;45.306;20.448;2022-09-09T10:54:24;743.00;2432.00
57030;DHT22;42920;45.306;20.448;2022-09-09T10:57:00;742.70;2432.00
57030;DHT22;42920;45.306;20.448;2022-09-09T10:59:33;742.50;2432.00
57030;DHT22;42920;45.306;20.448;2022-09-09T11:04:45;742.60;2432.00
57030;DHT22;42920;45.306;20.448;2022-09-09T11:07:26;742.80;2432.00
57030;DHT22;42920;45.306;20.448;2022-09-09T11:09:58;743.10;2432.00
57030;DHT22;42920;45.306;20.448;2022-09-09T11:12:27;768.10;2432.00
57030;DHT22;42920;45.306;20.448;2022-09-09T11:15:08;768.30;2432.00
57030;DHT22;42920;45.306;20.448;2022-09-09T11:17:45;768.70;2329.60
57030;DHT22;42920;45.306;20.448;2022-09-09T11:20:13;768.90;2252.80
57030;DHT22;42920;45.306;20.448;2022-09-09T11:23:17;793.60;2355.20
57030;DHT22;42920;45.306;20.448;2022-09-09T11:25:50;793.70;2432.00
57030;DHT22;42920;45.306;20.448;2022-09-09T11:36:40;793.60;2252.80
57030;DHT22;42920;45.306;20.448;2022-09-09T11:42:15;794.00;2252.80
57030;DHT22;42920;45.306;20.448;2022-09-09T11:44:43;794.20;2150.40
57030;DHT22;42920;45.306;20.448;2022-09-09T11:47:27;794.10;2150.40
57030;DHT22;42920;45.306;20.448;2022-09-09T11:50:10;794.20;2176.00
57030;DHT22;42920;45.306;20.448;2022-09-09T11:52:47;794.20;2176.00
57030;DHT22;42920;45.306;20.448;2022-09-09T11:58:03;794.50;2201.60
57030;DHT22;42920;45.306;20.448;2022-09-09T12:00:46;794.30;2150.40
57030;DHT22;42920;45.306;20.448;2022-09-09T12:05:57;794.50;2201.60
57030;DHT22;42920;45.306;20.448;2022-09-09T12:08:28;794.50;2124.80
57030;DHT22;42920;45.306;20.448;2022-09-09T12:10:58;819.30;2073.60
57030;DHT22;42920;45.306;20.448;2022-09-09T12:13:28;794.30;2201.60
57030;DHT22;42920;45.306;20.448;2022-09-09T12:23:55;819.20;2176.00
57030;DHT22;42920;45.306;20.448;2022-09-09T12:31:44;819.20;2150.40
57030;DHT22;42920;45.306;20.448;2022-09-09T12:34:32;819.30;2150.40
57030;DHT22;42920;45.306;20.448;2022-09-09T12:37:06;819.20;2201.60
57030;DHT22;42920;45.306;20.448;2022-09-09T12:39:45;794.20;2227.20
57030;DHT22;42920;45.306;20.448;2022-09-09T12:42:20;794.20;2432.00
57030;DHT22;42920;45.306;20.448;2022-09-09T12:44:53;794.00;2432.00
57030;DHT22;42920;45.306;20.448;2022-09-09T12:47:22;794.10;2304.00
57030;DHT22;42920;45.306;20.448;2022-09-09T12:49:49;794.30;2252.80
57030;DHT22;42920;45.306;20.448;2022-09-09T12:52:34;819.30;2355.20
57030;DHT22;42920;45.306;20.448;2022-09-09T12:55:03;819.30;2227.20
57030;DHT22;42920;45.306;20.448;2022-09-09T12:57:37;819.60;2124.80
57030;DHT22;42920;45.306;20.448;2022-09-09T13:00:17;819.60;2099.20
57030;DHT22;42920;45.306;20.448;2022-09-09T13:02:55;819.60;2252.80
57030;DHT22;42920;45.306;20.448;2022-09-09T13:05:26;819.60;2099.20
57030;DHT22;42920;45.306;20.448;2022-09-09T13:08:00;819.70;2048.00
57030;DHT22;42920;45.306;20.448;2022-09-09T13:10:29;819.80;2048.00
57030;DHT22;42920;45.306;20.448;2022-09-09T13:12:55;819.80;1971.20
57030;DHT22;42920;45.306;20.448;2022-09-09T13:15:24;819.90;1894.40
57030;DHT22;42920;45.306;20.448;2022-09-09T13:17:57;820.00;1920.00
57030;DHT22;42920;45.306;20.448;2022-09-09T13:20:26;820.10;1945.60
57030;DHT22;42920;45.306;20.448;2022-09-09T13:22:54;819.80;1945.60
57030;DHT22;42920;45.306;20.448;2022-09-09T13:25:28;819.40;2022.40
57030;DHT22;42920;45.306;20.448;2022-09-09T13:28:04;794.50;1996.80
57030;DHT22;42920;45.306;20.448;2022-09-09T13:30:36;794.40;2124.80
57030;DHT22;42920;45.306;20.448;2022-09-09T13:33:17;794.40;2227.20
57030;DHT22;42920;45.306;20.448;2022-09-09T13:36:05;794.00;2278.40
57030;DHT22;42920;45.306;20.448;2022-09-09T13:38:38;768.90;2329.60
57030;DHT22;42920;45.306;20.448;2022-09-09T13:41:06;768.60;2380.80
57030;DHT22;42920;45.306;20.448;2022-09-09T13:43:46;768.40;2380.80
57030;DHT22;42920;45.306;20.448;2022-09-09T13:46:35;768.70;2406.40
57030;DHT22;42920;45.306;20.448;2022-09-09T13:51:42;793.70;2380.80
57030;DHT22;42920;45.306;20.448;2022-09-09T13:54:12;793.90;2201.60
57030;DHT22;42920;45.306;20.448;2022-09-09T13:56:39;793.80;2227.20
57030;DHT22;42920;45.306;20.448;2022-09-09T13:59:09;793.70;2278.40
57030;DHT22;42920;45.306;20.448;2022-09-09T14:01:35;793.80;2329.60
57030;DHT22;42920;45.306;20.448;2022-09-09T14:04:03;793.80;2124.80
57030;DHT22;42920;45.306;20.448;2022-09-09T14:06:29;794.00;2099.20
57030;DHT22;42920;45.306;20.448;2022-09-09T14:08:55;794.20;1971.20
57030;DHT22;42920;45.306;20.448;2022-09-09T14:11:21;794.00;2176.00
57030;DHT22;42920;45.306;20.448;2022-09-09T14:13:48;793.90;2124.80
57030;DHT22;42920;45.306;20.448;2022-09-09T14:16:16;794.00;2252.80
57030;DHT22;42920;45.306;20.448;2022-09-09T14:18:43;768.90;2201.60
57030;DHT22;42920;45.306;20.448;2022-09-09T14:21:10;768.90;2201.60
57030;DHT22;42920;45.306;20.448;2022-09-09T14:23:36;768.60;2073.60
57030;DHT22;42920;45.306;20.448;2022-09-09T14:26:04;768.50;2150.40
57030;DHT22;42920;45.306;20.448;2022-09-09T14:28:30;768.70;2073.60
57030;DHT22;42920;45.306;20.448;2022-09-09T14:30:59;768.60;2176.00
57030;DHT22;42920;45.306;20.448;2022-09-09T14:33:26;768.70;2278.40
57030;DHT22;42920;45.306;20.448;2022-09-09T14:35:58;768.60;2252.80
57030;DHT22;42920;45.306;20.448;2022-09-09T14:38:25;768.40;2176.00
57030;DHT22;42920;45.306;20.448;2022-09-09T14:40:51;768.40;2099.20
57030;DHT22;42920;45.306;20.448;2022-09-09T14:43:16;768.30;2176.00
57030;DHT22;42920;45.306;20.448;2022-09-09T14:45:42;768.20;2252.80
57030;DHT22;42920;45.306;20.448;2022-09-09T14:48:09;768.10;2252.80
57030;DHT22;42920;45.306;20.448;2022-09-09T14:50:34;743.30;2355.20
57030;DHT22;42920;45.306;20.448;2022-09-09T14:53:02;743.10;2278.40
57030;DHT22;42920;45.306;20.448;2022-09-09T14:55:28;768.10;2432.00
57030;DHT22;42920;45.306;20.448;2022-09-09T14:57:54;742.90;2432.00
57030;DHT22;42920;45.306;20.448;2022-09-09T15:00:20;742.90;2355.20
57030;DHT22;42920;45.306;20.448;2022-09-09T15:02:46;742.90;2355.20
57030;DHT22;42920;45.306;20.448;2022-09-09T15:05:11;742.90;2432.00
57030;DHT22;42920;45.306;20.448;2022-09-09T15:07:37;742.90;2329.60
57030;DHT22;42920;45.306;20.448;2022-09-09T15:10:04;742.80;2355.20
57030;DHT22;42920;45.306;20.448;2022-09-09T15:12:30;742.80;2432.00
57030;DHT22;42920;45.306;20.448;2022-09-09T15:14:56;742.80;2406.40
57030;DHT22;42920;45.306;20.448;2022-09-09T15:17:21;742.80;2380.80
57030;DHT22;42920;45.306;20.448;2022-09-09T15:19:47;742.70;2432.00
57030;DHT22;42920;45.306;20.448;2022-09-09T15:22:15;742.60;2432.00
57030;DHT22;42920;45.306;20.448;2022-09-09T15:24:41;742.50;2432.00
57030;DHT22;42920;45.306;20.448;2022-09-09T15:27:06;742.50;2432.00
57030;DHT22;42920;45.306;20.448;2022-09-09T15:29:32;742.50;2432.00
57030;DHT22;42920;45.306;20.448;2022-09-09T15:31:58;742.50;2432.00
57030;DHT22;42920;45.306;20.448;2022-09-09T15:34:24;742.40;2432.00
57030;DHT22;42920;45.306;20.448;2022-09-09T15:36:50;742.40;2432.00
57030;DHT22;42920;45.306;20.448;2022-09-09T15:39:17;742.40;2432.00
57030;DHT22;42920;45.306;20.448;2022-09-09T15:41:44;717.70;2432.00
57030;DHT22;42920;45.306;20.448;2022-09-09T15:44:11;717.70;2432.00
57030;DHT22;42920;45.306;20.448;2022-09-09T15:46:49;717.50;2432.00
57030;DHT22;42920;45.306;20.448;2022-09-09T15:49:18;717.60;2432.00
57030;DHT22;42920;45.306;20.448;2022-09-09T15:51:53;717.60;2432.00
57030;DHT22;42920;45.306;20.448;2022-09-09T15:54:22;717.60;2432.00
57030;DHT22;42920;45.306;20.448;2022-09-09T15:56:54;717.50;2432.00
57030;DHT22;42920;45.306;20.448;2022-09-09T15:59:22;717.50;2432.00
57030;DHT22;42920;45.306;20.448;2022-09-09T16:01:48;717.50;2432.00
57030;DHT22;42920;45.306;20.448;2022-09-09T16:04:17;717.50;2432.00
57030;DHT22;42920;45.306;20.448;2022-09-09T16:06:53;717.50;2432.00
57030;DHT22;42920;45.306;20.448;2022-09-09T16:09:19;717.50;2432.00
57030;DHT22;42920;45.306;20.448;2022-09-09T16:11:45;717.50;2432.00
57030;DHT22;42920;45.306;20.448;2022-09-09T16:14:13;717.50;2432.00
57030;DHT22;42920;45.306;20.448;2022-09-09T16:16:39;717.50;2432.00
57030;DHT22;42920;45.306;20.448;2022-09-09T16:19:07;717.40;2432.00
57030;DHT22;42920;45.306;20.448;2022-09-09T16:21:40;717.20;2432.00
57030;DHT22;42920;45.306;20.448;2022-09-09T16:24:07;717.20;2432.00
57030;DHT22;42920;45.306;20.448;2022-09-09T16:26:35;717.20;2432.00
57030;DHT22;42920;45.306;20.448;2022-09-09T16:29:01;717.20;2432.00
57030;DHT22;42920;45.306;20.448;2022-09-09T16:31:29;717.10;2432.00
57030;DHT22;42920;45.306;20.448;2022-09-09T16:33:55;717.10;2432.00
57030;DHT22;42920;45.306;20.448;2022-09-09T16:36:26;717.00;2432.00
57030;DHT22;42920;45.306;20.448;2022-09-09T16:38:53;716.90;2432.00
57030;DHT22;42920;45.306;20.448;2022-09-09T16:41:21;716.80;2432.00
57030;DHT22;42920;45.306;20.448;2022-09-09T16:43:47;716.80;2432.00
57030;DHT22;42920;45.306;20.448;2022-09-09T16:46:15;716.80;2432.00
57030;DHT22;42920;45.306;20.448;2022-09-09T16:48:43;692.10;2432.00
57030;DHT22;42920;45.306;20.448;2022-09-09T16:53:39;692.00;2432.00
57030;DHT22;42920;45.306;20.448;2022-09-09T16:56:11;691.90;2432.00
57030;DHT22;42920;45.306;20.448;2022-09-09T16:58:37;691.80;2432.00
57030;DHT22;42920;45.306;20.448;2022-09-09T17:01:04;691.80;2432.00
57030;DHT22;42920;45.306;20.448;2022-09-09T17:03:30;691.80;2432.00
57030;DHT22;42920;45.306;20.448;2022-09-09T17:05:58;691.70;2432.00
57030;DHT22;42920;45.306;20.448;2022-09-09T17:08:30;691.70;2432.00
57030;DHT22;42920;45.306;20.448;2022-09-09T17:10:57;691.50;2432.00
57030;DHT22;42920;45.306;20.448;2022-09-09T17:13:23;691.50;2432.00
57030;DHT22;42920;45.306;20.448;2022-09-09T17:15:50;691.40;2432.00
57030;DHT22;42920;45.306;20.448;2022-09-09T17:18:16;691.40;2432.00